createdAt,value
2022-08-09T00:00:59.048Z,2.10
2022-08-09T00:04:06.250Z,1.88
2022-08-09T00:06:23.295Z,1.73
2022-08-09T00:08:57.008Z,1.85
2022-08-09T00:12:02.876Z,2.00
2022-08-09T00:14:21.928Z,1.90
2022-08-09T00:17:05.403Z,1.90
2022-08-09T00:19:33.941Z,1.90
2022-08-09T00:22:03.493Z,2.30
2022-08-09T00:24:32.917Z,1.85
2022-08-09T00:27:03.969Z,2.00
2022-08-09T00:30:10.021Z,2.10
2022-08-09T00:32:25.376Z,2.10
2022-08-09T00:34:53.810Z,2.10
2022-08-09T00:37:22.189Z,2.05
2022-08-09T00:40:13.128Z,2.13
2022-08-09T00:44:14.162Z,2.00
2022-08-09T00:45:30.519Z,1.90
2022-08-09T00:48:04.345Z,1.95
2022-08-09T00:50:37.864Z,2.28
2022-08-09T00:53:10.582Z,2.08
2022-08-09T00:56:04.718Z,1.92
2022-08-09T00:58:34.449Z,2.00
2022-08-09T01:01:08.129Z,2.17
2022-08-09T01:03:51.416Z,2.50
2022-08-09T01:06:54.381Z,2.08
2022-08-09T01:09:36.478Z,2.00
2022-08-09T01:12:16.440Z,2.50
2022-08-09T01:15:05.883Z,2.17
2022-08-09T01:17:47.184Z,2.28
2022-08-09T01:20:25.932Z,2.20
2022-08-09T01:24:02.744Z,2.28
2022-08-09T01:26:57.390Z,2.53
2022-08-09T01:29:40.878Z,2.20
2022-08-09T01:32:29.783Z,2.50
2022-08-09T01:35:18.084Z,2.35
2022-08-09T01:38:09.316Z,2.55
2022-08-09T01:40:44.911Z,2.30
2022-08-09T01:43:24.357Z,2.60
2022-08-09T01:45:58.046Z,2.70
2022-08-09T01:48:31.429Z,2.97
2022-08-09T01:51:02.585Z,2.28
2022-08-09T01:53:41.410Z,2.80
2022-08-09T01:56:13.096Z,2.72
2022-08-09T01:58:49.021Z,2.85
2022-08-09T02:01:20.013Z,3.22
2022-08-09T02:04:01.027Z,2.95
2022-08-09T02:06:58.434Z,2.92
2022-08-09T02:09:41.895Z,3.10
2022-08-09T02:12:21.188Z,3.40
2022-08-09T02:14:56.005Z,3.05
2022-08-09T02:17:59.457Z,3.10
2022-08-09T02:20:26.494Z,3.20
2022-08-09T02:23:09.836Z,3.00
2022-08-09T02:25:42.449Z,3.33
2022-08-09T02:28:24.414Z,3.20
2022-08-09T02:31:05.781Z,3.15
2022-08-09T02:34:06.463Z,3.28
2022-08-09T02:36:34.371Z,3.03
2022-08-09T02:39:14.436Z,3.30
2022-08-09T02:41:56.014Z,3.50
2022-08-09T02:44:32.437Z,3.15
2022-08-09T02:47:08.320Z,3.30
2022-08-09T02:49:46.946Z,3.20
2022-08-09T02:52:35.850Z,2.97
2022-08-09T02:55:20.102Z,3.20
2022-08-09T02:57:59.772Z,3.20
2022-08-09T03:00:57.692Z,3.50
2022-08-09T03:04:05.771Z,3.20
2022-08-09T03:06:22.718Z,3.55
2022-08-09T03:08:52.766Z,3.15
2022-08-09T03:12:04.877Z,3.42
2022-08-09T03:14:14.594Z,3.28
2022-08-09T03:16:48.137Z,3.42
2022-08-09T03:19:52.471Z,3.10
2022-08-09T03:22:12.106Z,2.97
2022-08-09T03:25:05.797Z,3.05
2022-08-09T03:27:45.218Z,2.95
2022-08-09T03:30:29.183Z,2.72
2022-08-09T03:33:12.953Z,2.85
2022-08-09T03:36:13.035Z,3.10
2022-08-09T03:38:42.108Z,3.25
2022-08-09T03:41:15.192Z,3.00
2022-08-09T03:44:03.265Z,3.05
2022-08-09T03:46:33.513Z,2.72
2022-08-09T03:49:08.480Z,2.90
2022-08-09T03:51:58.410Z,3.05
2022-08-09T03:54:34.523Z,2.83
2022-08-09T03:57:18.008Z,2.97
2022-08-09T03:59:54.601Z,3.00
2022-08-09T04:02:28.342Z,2.88
2022-08-09T04:05:00.773Z,2.78
2022-08-09T04:07:33.738Z,3.10
2022-08-09T04:10:28.473Z,2.63
2022-08-09T04:13:04.046Z,2.70
2022-08-09T04:16:17.205Z,2.53
2022-08-09T04:18:22.091Z,2.85
2022-08-09T04:20:51.335Z,2.70
2022-08-09T04:23:24.712Z,2.65
2022-08-09T04:25:54.703Z,2.25
2022-08-09T04:28:33.195Z,2.53
2022-08-09T04:31:09.333Z,2.70
2022-08-09T04:33:51.981Z,2.60
2022-08-09T04:36:27.468Z,2.70
2022-08-09T04:39:00.768Z,2.40
2022-08-09T04:41:32.121Z,2.53
2022-08-09T04:44:06.664Z,2.42
2022-08-09T04:46:58.862Z,2.70
2022-08-09T04:49:53.184Z,2.22
2022-08-09T04:52:26.133Z,2.17
2022-08-09T04:55:04.162Z,2.28
2022-08-09T04:57:54.409Z,2.17
2022-08-09T05:00:24.564Z,2.42
2022-08-09T05:02:53.230Z,2.38
2022-08-09T05:05:51.879Z,2.28
2022-08-09T05:08:14.026Z,2.47
2022-08-09T05:10:45.608Z,2.05
2022-08-09T05:13:14.796Z,2.42
2022-08-09T05:15:48.163Z,2.08
2022-08-09T05:18:42.843Z,2.05
2022-08-09T05:21:10.082Z,2.10
2022-08-09T05:23:59.805Z,2.30
2022-08-09T05:26:45.344Z,2.22
2022-08-09T05:29:21.562Z,1.90
2022-08-09T05:31:57.206Z,2.20
2022-08-09T05:34:31.358Z,1.75
2022-08-09T05:37:06.199Z,2.15
2022-08-09T05:39:43.302Z,1.88
2022-08-09T05:42:21.606Z,2.20
2022-08-09T05:44:52.193Z,2.00
2022-08-09T05:47:21.725Z,1.92
2022-08-09T05:50:25.968Z,1.90
2022-08-09T05:52:41.971Z,1.90
2022-08-09T05:55:20.929Z,1.80
2022-08-09T05:57:56.741Z,1.95
2022-08-09T06:00:28.605Z,2.10
2022-08-09T06:02:58.729Z,1.80
2022-08-09T06:05:50.499Z,1.90
2022-08-09T06:08:19.331Z,2.03
2022-08-09T06:10:52.954Z,2.00
2022-08-09T06:13:24.202Z,1.90
2022-08-09T06:15:53.305Z,1.70
2022-08-09T06:18:24.902Z,1.92
2022-08-09T06:20:57.650Z,1.77
2022-08-09T06:23:58.514Z,1.70
2022-08-09T06:26:20.805Z,1.73
2022-08-09T06:29:00.612Z,1.90
2022-08-09T06:31:39.862Z,1.50
2022-08-09T06:34:23.480Z,1.73
2022-08-09T06:36:58.917Z,1.90
2022-08-09T06:39:57.752Z,1.70
2022-08-09T06:42:19.860Z,1.80
2022-08-09T06:44:54.028Z,1.70
2022-08-09T06:47:23.756Z,1.70
2022-08-09T06:50:14.221Z,1.60
2022-08-09T06:52:47.070Z,1.60
2022-08-09T06:55:17.160Z,2.00
2022-08-09T06:58:02.643Z,1.60
2022-08-09T07:00:54.686Z,1.65
2022-08-09T07:03:27.938Z,1.60
2022-08-09T07:06:03.816Z,1.67
2022-08-09T07:08:35.284Z,1.63
2022-08-09T07:11:06.943Z,1.60
2022-08-09T07:14:04.062Z,1.40
2022-08-09T07:16:41.533Z,1.60
2022-08-09T07:19:15.545Z,1.75
2022-08-09T07:21:55.428Z,1.40
2022-08-09T07:24:31.977Z,1.50
2022-08-09T07:27:10.921Z,1.52
2022-08-09T07:29:58.404Z,1.55
2022-08-09T07:32:33.652Z,1.83
2022-08-09T07:35:07.978Z,1.60
2022-08-09T07:37:44.068Z,1.65
2022-08-09T07:40:17.320Z,1.50
2022-08-09T07:42:55.520Z,1.80
2022-08-09T07:45:39.244Z,1.45
2022-08-09T07:48:25.678Z,1.40
2022-08-09T07:51:09.246Z,1.52
2022-08-09T07:54:05.982Z,1.45
2022-08-09T07:56:44.667Z,1.50
2022-08-09T07:59:34.572Z,1.30
2022-08-09T08:02:07.440Z,1.50
2022-08-09T08:04:39.009Z,1.40
2022-08-09T08:07:27.052Z,1.40
2022-08-09T08:10:08.958Z,1.50
2022-08-09T08:12:45.055Z,1.77
2022-08-09T08:15:16.705Z,1.38
2022-08-09T08:17:53.349Z,1.40
2022-08-09T08:20:29.337Z,1.70
2022-08-09T08:23:16.324Z,1.40
2022-08-09T08:25:48.208Z,1.90
2022-08-09T08:28:32.374Z,1.60
2022-08-09T08:31:10.482Z,1.30
2022-08-09T08:33:53.353Z,1.13
2022-08-09T08:36:29.640Z,1.50
2022-08-09T08:39:00.334Z,1.48
2022-08-09T08:41:41.998Z,1.50
2022-08-09T08:44:27.010Z,1.48
2022-08-09T08:47:05.212Z,1.30
2022-08-09T08:49:48.132Z,1.25
2022-08-09T08:55:11.547Z,1.40
2022-08-09T08:57:44.059Z,1.40
2022-08-09T09:00:29.958Z,1.30
2022-08-09T09:03:11.325Z,1.25
2022-08-09T09:05:58.437Z,1.30
2022-08-09T09:08:37.993Z,1.25
2022-08-09T09:11:13.792Z,1.50
2022-08-09T09:13:56.642Z,1.50
2022-08-09T09:16:34.227Z,1.40
2022-08-09T09:22:07.662Z,1.52
2022-08-09T09:24:43.186Z,1.48
2022-08-09T09:28:03.126Z,1.30
2022-08-09T09:30:37.329Z,1.48
2022-08-09T09:33:15.931Z,1.38
2022-08-09T09:36:01.329Z,1.48
2022-08-09T09:38:49.566Z,1.27
2022-08-09T09:41:48.960Z,1.33
2022-08-09T09:44:27.916Z,1.50
2022-08-09T09:47:09.403Z,1.48
2022-08-09T09:50:13.717Z,1.40
2022-08-09T09:52:36.366Z,1.42
2022-08-09T09:55:27.713Z,1.42
2022-08-09T09:58:16.331Z,1.45
2022-08-09T10:00:55.527Z,1.33
2022-08-09T10:03:43.231Z,1.45
2022-08-09T10:06:13.233Z,1.67
2022-08-09T10:08:55.123Z,1.55
2022-08-09T10:11:59.525Z,1.60
2022-08-09T10:14:33.199Z,1.80
2022-08-09T10:17:39.610Z,1.20
2022-08-09T10:20:02.666Z,1.48
2022-08-09T10:22:36.754Z,1.38
2022-08-09T10:25:11.619Z,1.50
2022-08-09T10:27:45.079Z,1.60
2022-08-09T10:34:05.202Z,1.48
2022-08-09T10:36:11.476Z,1.40
2022-08-09T10:38:56.801Z,1.30
2022-08-09T10:41:28.821Z,1.70
2022-08-09T10:44:01.769Z,1.50
2022-08-09T10:47:04.045Z,1.20
2022-08-09T10:49:59.448Z,1.60
2022-08-09T10:53:01.427Z,1.30
2022-08-09T10:55:35.821Z,1.55
2022-08-09T10:58:33.532Z,1.33
2022-08-09T11:03:03.033Z,1.30
2022-08-09T11:04:29.717Z,1.42
2022-08-09T11:07:56.984Z,1.40
2022-08-09T11:11:00.774Z,1.40
2022-08-09T11:13:50.296Z,1.50
2022-08-09T11:16:37.042Z,1.48
2022-08-09T11:19:10.109Z,1.40
2022-08-09T11:22:16.909Z,1.40
2022-08-09T11:25:09.835Z,1.52
2022-08-09T11:28:03.972Z,1.50
2022-08-09T11:30:37.626Z,1.48
2022-08-09T11:33:25.455Z,1.48
2022-08-09T11:35:57.974Z,1.40
2022-08-09T11:38:32.926Z,1.50
2022-08-09T11:41:06.472Z,1.50
2022-08-09T11:43:42.817Z,1.40
2022-08-09T11:46:11.763Z,1.63
2022-08-09T11:48:50.506Z,1.40
2022-08-09T11:51:37.944Z,1.60
2022-08-09T11:54:27.754Z,1.45
2022-08-09T11:57:47.524Z,1.40
2022-08-09T12:00:28.180Z,1.58
2022-08-09T12:02:58.560Z,1.42
2022-08-09T12:05:42.189Z,1.65
2022-08-09T12:08:19.829Z,1.20
2022-08-09T12:10:54.919Z,1.63
2022-08-09T12:14:09.123Z,1.50
2022-08-09T12:16:37.138Z,1.30
2022-08-09T12:19:09.628Z,1.30
2022-08-09T12:21:48.456Z,1.30
2022-08-09T12:24:25.397Z,1.40
2022-08-09T12:28:59.751Z,1.50
2022-08-09T12:30:01.541Z,1.38
2022-08-09T12:32:48.439Z,1.40
2022-08-09T12:35:19.233Z,1.20
2022-08-09T12:37:52.212Z,1.65
2022-08-09T12:40:27.776Z,1.30
2022-08-09T12:42:58.143Z,1.30
2022-08-09T12:45:34.592Z,1.50
2022-08-09T12:48:20.170Z,1.40
2022-08-09T12:51:03.992Z,1.48
2022-08-09T12:53:38.779Z,1.40
2022-08-09T12:56:43.493Z,1.58
2022-08-09T12:59:10.901Z,1.40
2022-08-09T13:01:49.027Z,1.30
2022-08-09T13:04:37.196Z,1.35
2022-08-09T13:07:19.968Z,1.50
2022-08-09T13:10:03.847Z,1.25
2022-08-09T13:12:39.961Z,1.60
2022-08-09T13:15:24.857Z,1.30
2022-08-09T13:18:05.676Z,1.40
2022-08-09T13:20:50.142Z,1.45
2022-08-09T13:24:16.311Z,1.33
2022-08-09T13:26:36.928Z,1.50
2022-08-09T13:29:10.561Z,1.20
2022-08-09T13:32:19.458Z,1.40
2022-08-09T13:34:50.525Z,1.50
2022-08-09T13:37:51.387Z,1.48
2022-08-09T13:41:46.297Z,1.63
2022-08-09T13:42:59.456Z,1.48
2022-08-09T13:46:42.625Z,1.30
2022-08-09T13:48:21.325Z,1.20
2022-08-09T13:50:49.512Z,1.20
2022-08-09T13:53:17.996Z,1.25
2022-08-09T13:55:47.932Z,1.27
2022-08-09T13:58:16.187Z,1.15
2022-08-09T14:00:48.298Z,1.20
2022-08-09T14:04:01.727Z,1.38
2022-08-09T14:06:19.273Z,1.20
2022-08-09T14:08:54.561Z,1.30
2022-08-09T14:11:23.694Z,1.15
2022-08-09T14:14:23.155Z,1.33
2022-08-09T14:16:40.382Z,1.27
2022-08-09T14:19:10.364Z,1.25
2022-08-09T14:21:39.013Z,1.50
2022-08-09T14:24:18.673Z,1.20
2022-08-09T14:26:51.170Z,1.20
2022-08-09T14:30:03.981Z,1.30
2022-08-09T14:32:11.404Z,1.10
2022-08-09T14:34:45.723Z,1.30
2022-08-09T14:37:14.304Z,1.10
2022-08-09T14:39:48.292Z,1.23
2022-08-09T14:42:31.102Z,1.13
2022-08-09T14:46:45.882Z,1.20
2022-08-09T14:47:57.257Z,1.23
2022-08-09T14:50:31.653Z,1.13
2022-08-09T14:53:01.677Z,1.30
2022-08-09T14:55:32.783Z,1.10
2022-08-09T14:58:03.749Z,1.20
2022-08-09T15:00:36.202Z,1.17
2022-08-09T15:03:07.306Z,1.20
2022-08-09T15:05:39.868Z,1.30
2022-08-09T15:08:19.100Z,1.10
2022-08-09T15:11:00.443Z,1.05
2022-08-09T15:13:48.110Z,1.20
2022-08-09T15:16:19.599Z,1.27
2022-08-09T15:18:49.554Z,1.30
2022-08-09T15:21:58.056Z,1.40
2022-08-09T15:24:12.838Z,1.30
2022-08-09T15:26:46.302Z,1.23
2022-08-09T15:30:58.761Z,1.65
2022-08-09T15:32:04.790Z,1.10
2022-08-09T15:34:35.314Z,1.30
2022-08-09T15:37:37.968Z,1.25
2022-08-09T15:40:19.969Z,1.50
2022-08-09T15:42:50.859Z,1.30
2022-08-09T15:45:29.332Z,1.40
2022-08-09T15:48:05.239Z,1.38
2022-08-09T15:50:39.357Z,1.30
2022-08-09T15:53:17.922Z,1.50
2022-08-09T15:56:28.566Z,1.33
2022-08-09T15:58:50.021Z,1.35
2022-08-09T16:01:19.670Z,1.55
2022-08-09T16:03:50.995Z,1.48
2022-08-09T16:06:34.829Z,1.45
2022-08-09T16:09:06.091Z,1.30
2022-08-09T16:11:34.584Z,1.20
2022-08-09T16:14:07.867Z,1.40
2022-08-09T16:16:41.981Z,1.30
2022-08-09T16:19:14.592Z,1.30
2022-08-09T16:21:48.571Z,1.15
2022-08-09T16:24:32.927Z,1.35
2022-08-09T16:27:04.850Z,1.38
2022-08-09T16:29:36.894Z,1.33
2022-08-09T16:32:19.329Z,1.55
2022-08-09T16:34:58.137Z,1.40
2022-08-09T16:37:54.095Z,1.10
2022-08-09T16:40:29.644Z,1.25
2022-08-09T16:43:07.378Z,1.20
2022-08-09T16:45:41.682Z,1.30
2022-08-09T16:48:38.673Z,1.27
2022-08-09T16:51:08.439Z,1.40
2022-08-09T16:54:02.268Z,1.23
2022-08-09T16:56:31.582Z,1.27
2022-08-09T16:59:01.033Z,1.40
2022-08-09T17:01:33.828Z,1.33
2022-08-09T17:04:05.426Z,1.77
2022-08-09T17:08:41.302Z,1.42
2022-08-09T17:09:45.441Z,1.38
2022-08-09T17:12:12.993Z,1.60
2022-08-09T17:14:47.936Z,1.30
2022-08-09T17:17:26.744Z,1.45
2022-08-09T17:20:29.075Z,1.30
2022-08-09T17:22:52.137Z,1.30
2022-08-09T17:25:23.370Z,1.38
2022-08-09T17:27:55.240Z,1.27
2022-08-09T17:30:26.497Z,1.45
2022-08-09T17:33:01.428Z,1.33
2022-08-09T17:35:41.211Z,1.60
2022-08-09T17:38:30.764Z,1.65
2022-08-09T17:41:00.069Z,1.60
2022-08-09T17:43:34.618Z,1.70
2022-08-09T17:46:09.502Z,1.67
2022-08-09T17:48:40.300Z,1.70
2022-08-09T17:51:18.087Z,1.70
2022-08-09T17:53:53.645Z,1.63
2022-08-09T17:56:28.803Z,1.60
2022-08-09T17:59:18.846Z,1.58
2022-08-09T18:02:06.098Z,1.70
2022-08-09T18:04:43.855Z,1.48
2022-08-09T18:07:22.922Z,1.70
2022-08-09T18:10:05.048Z,1.60
2022-08-09T18:12:40.735Z,1.60
2022-08-09T18:16:05.705Z,1.80
2022-08-09T18:18:25.952Z,1.60
2022-08-09T18:21:18.865Z,1.63
2022-08-09T18:24:12.795Z,1.50
2022-08-09T18:27:01.173Z,1.83
2022-08-09T18:30:39.252Z,1.70
2022-08-09T18:32:45.333Z,1.52
2022-08-09T18:35:59.556Z,1.67
2022-08-09T18:38:16.767Z,1.45
2022-08-09T18:40:46.383Z,1.83
2022-08-09T18:43:15.845Z,1.75
2022-08-09T18:46:50.843Z,1.85
2022-08-09T18:48:36.823Z,2.08
2022-08-09T18:51:11.678Z,1.80
2022-08-09T18:54:00.644Z,1.75
2022-08-09T18:56:37.603Z,1.92
2022-08-09T18:59:07.109Z,1.90
2022-08-09T19:01:43.586Z,1.80
2022-08-09T19:04:24.903Z,1.63
2022-08-09T19:07:05.638Z,1.80
2022-08-09T19:10:16.768Z,1.77
2022-08-09T19:12:37.873Z,1.52
2022-08-09T19:15:08.746Z,1.73
2022-08-09T19:18:01.024Z,1.80
2022-08-09T19:20:34.377Z,1.55
2022-08-09T19:24:39.832Z,1.60
2022-08-09T19:26:29.420Z,1.58
2022-08-09T19:29:20.618Z,1.60
2022-08-09T19:31:51.479Z,1.90
2022-08-09T19:34:22.892Z,1.75
2022-08-09T19:36:56.355Z,1.73
2022-08-09T19:40:03.284Z,1.50
2022-08-09T19:42:19.519Z,1.70
2022-08-09T19:44:51.149Z,1.60
2022-08-09T19:47:23.356Z,1.75
2022-08-09T19:50:08.235Z,1.70
2022-08-09T19:52:49.472Z,1.73
2022-08-09T19:55:30.480Z,1.63
2022-08-09T19:58:15.913Z,1.80
2022-08-09T20:00:47.296Z,1.80
2022-08-09T20:04:27.901Z,1.90
2022-08-09T20:06:22.346Z,1.70
2022-08-09T20:08:56.718Z,1.63
2022-08-09T20:11:42.941Z,1.80
2022-08-09T20:17:15.279Z,1.77
2022-08-09T20:19:54.376Z,1.70
2022-08-09T20:22:32.159Z,1.60
2022-08-09T20:25:07.082Z,1.77
2022-08-09T20:27:42.233Z,1.70
2022-08-09T20:30:17.968Z,1.67
2022-08-09T20:32:54.965Z,1.98
2022-08-09T20:35:27.291Z,1.65
2022-08-09T20:38:23.454Z,1.70
2022-08-09T20:40:56.046Z,1.70
2022-08-09T20:43:28.822Z,1.60
2022-08-09T20:46:33.264Z,1.77
2022-08-09T20:48:54.123Z,1.70
2022-08-09T20:51:26.766Z,1.58
2022-08-09T20:54:00.924Z,1.67
2022-08-09T20:56:38.191Z,1.67
2022-08-09T20:59:17.327Z,1.65
2022-08-09T21:01:53.406Z,1.98
2022-08-09T21:05:54.030Z,1.50
2022-08-09T21:07:18.522Z,1.70
2022-08-09T21:09:56.383Z,1.50
2022-08-09T21:12:34.058Z,1.60
2022-08-09T21:15:05.803Z,1.77
2022-08-09T21:18:21.862Z,2.00
2022-08-09T21:20:37.007Z,1.90
2022-08-09T21:23:13.538Z,1.90
2022-08-09T21:25:56.101Z,2.20
2022-08-09T21:28:36.544Z,2.08
2022-08-09T21:31:17.580Z,1.83
2022-08-09T21:33:56.609Z,2.00
2022-08-09T21:36:31.641Z,1.80
2022-08-09T21:39:04.841Z,2.10
2022-08-09T21:42:04.188Z,2.05
2022-08-09T21:44:35.327Z,1.70
2022-08-09T21:47:10.807Z,2.00
2022-08-09T21:49:50.955Z,1.92
2022-08-09T21:52:24.710Z,2.17
2022-08-09T21:55:04.197Z,1.75
2022-08-09T21:57:58.621Z,2.10
2022-08-09T22:00:34.461Z,2.05
2022-08-09T22:03:12.501Z,1.85
2022-08-09T22:05:51.466Z,1.80
2022-08-09T22:08:24.710Z,2.00
2022-08-09T22:11:48.991Z,2.20
2022-08-09T22:13:50.343Z,1.90
2022-08-09T22:16:21.649Z,2.10
2022-08-09T22:18:54.081Z,1.90
2022-08-09T22:21:45.337Z,2.00
2022-08-09T22:24:17.006Z,2.13
2022-08-09T22:26:51.457Z,1.90
2022-08-09T22:29:26.799Z,2.25
2022-08-09T22:32:02.630Z,1.95
2022-08-09T22:34:30.918Z,1.95
2022-08-09T22:37:00.939Z,2.00
2022-08-09T22:39:57.318Z,2.17
2022-08-09T22:42:22.595Z,2.03
2022-08-09T22:48:04.634Z,2.22
2022-08-09T22:48:15.524Z,2.10
2022-08-09T22:50:33.500Z,2.20
2022-08-09T22:53:03.897Z,1.85
2022-08-09T22:56:05.920Z,2.00
2022-08-09T22:58:32.888Z,2.00
2022-08-09T23:01:03.960Z,2.00
2022-08-09T23:04:05.305Z,1.85
2022-08-09T23:06:35.461Z,2.13
2022-08-09T23:09:06.974Z,2.30
2022-08-09T23:11:36.242Z,2.17
2022-08-09T23:14:10.217Z,2.10
2022-08-09T23:16:45.912Z,2.08
2022-08-09T23:19:15.651Z,1.88
2022-08-09T23:21:44.279Z,2.33
2022-08-09T23:24:13.069Z,2.08
2022-08-09T23:26:41.998Z,2.28
2022-08-09T23:29:13.659Z,2.17
2022-08-09T23:31:42.658Z,2.25
2022-08-09T23:34:11.210Z,2.10
2022-08-09T23:36:40.760Z,2.10
2022-08-09T23:39:09.501Z,2.15
2022-08-09T23:41:38.054Z,2.00
2022-08-09T23:44:06.625Z,2.00
2022-08-09T23:46:35.016Z,2.05
2022-08-09T23:49:03.464Z,2.10
2022-08-09T23:51:32.094Z,2.20
2022-08-09T23:54:03.066Z,2.20
2022-08-09T23:56:53.115Z,2.10
2022-08-09T23:59:21.621Z,2.13
